Mehrabad International Airport
OIII : now visible

Airfield :











YOU CAN JOIN US ON...

 
LOGIN :

Register | Disclaimer

   EN    FR    IT 

 









Legend :    VFR   Marginal VFR   IFR   Intensive IFR   Very Intensive IFR
Visi :
Ceiling :
>= 8 km
>= 3000ft
5 to 8 km
1000 to 3000 ft
1500m to 5 km
500 to 1000 ft
800 to 1500m
200 to 500 ft
< 800m
< 200 ft
Symbols :   Thunderstorms  Fog  Heavy snow  Heavy precipitations  Wind > 20 kt







- Airport Elevation : 3962 ft
- IATA code : THR


OIII - Mehrabad International

CURRENT METAR :
  • 192230Z 29006KT CAVOK 01/M06 Q1016 A3001

EXPIRED METARs :
  • 192200Z 29008KT 9999 FEW100 01/M06 Q1015 A2999 NOSIG
  • 192130Z 28008KT 9999 FEW100 02/M07 Q1014 A2997
  • 192100Z 27006KT CAVOK 02/M06 Q1014 A2995
  • 192030Z 27006KT CAVOK 02/M06 Q1013 A2994
  • 192000Z 27010KT CAVOK 02/M05 Q1013 A2993

TAF TAF OIII
Valid from the 19 at 18:00 until the 21 at 00:00 UTC


191730Z 1918/2024 31008KT CAVOK
TEMPO 1920/2004 31018KT
BECMG 2004/2006 5000 HZ NSC
BECMG 2009/2011 CAVOK
OIIX FIR / Asia



MET'MAP, your aeronautical weather chart ! - Copyright ORBIFLY December 2007 - Disclaimer

ORBIFLY MET'MAP TEAM :

Programming & Development : Alexandra Zaïnal
Concept & Development : Baudouin d'Aumeries
Co-Development & Prog : Marc-Olivier Méhu
Technical & hardware support : Manuel Goepfert

Contact : metmap@orbifly.com




SOURCES & CREDITS :

   NOAA       Earth
Advisory